createdAt,value
2022-12-19T00:02:04.220Z,-4.22
2022-12-19T00:05:13.524Z,-4.26
2022-12-19T00:08:21.457Z,-4.28
2022-12-19T00:11:30.811Z,-4.30
2022-12-19T00:14:39.244Z,-4.30
2022-12-19T00:17:47.100Z,-4.30
2022-12-19T00:21:04.415Z,-4.30
2022-12-19T00:24:21.608Z,-4.36
2022-12-19T00:27:30.111Z,-4.40
2022-12-19T00:30:38.230Z,-4.44
2022-12-19T00:33:48.059Z,-4.50
2022-12-19T00:36:56.087Z,-4.50
2022-12-19T00:40:04.035Z,-4.50
2022-12-19T00:43:11.887Z,-4.50
2022-12-19T00:46:20.942Z,-4.50
2022-12-19T00:49:28.773Z,-4.48
2022-12-19T00:52:36.591Z,-4.40
2022-12-19T00:55:44.912Z,-4.40
2022-12-19T00:58:53.886Z,-4.40
2022-12-19T01:02:08.473Z,-4.40
2022-12-19T01:05:19.024Z,-4.40
2022-12-19T01:08:34.581Z,-4.40
2022-12-19T01:12:06.554Z,-4.30
2022-12-19T01:15:25.393Z,-4.30
2022-12-19T01:18:33.220Z,-4.30
2022-12-19T01:21:42.032Z,-4.30
2022-12-19T01:24:49.483Z,-4.38
2022-12-19T01:28:00.546Z,-4.40
2022-12-19T01:31:11.426Z,-4.40
2022-12-19T01:34:21.660Z,-4.50
2022-12-19T01:37:29.552Z,-4.50
2022-12-19T01:40:38.181Z,-4.60
2022-12-19T01:44:06.459Z,-4.60
2022-12-19T01:47:16.469Z,-4.60
2022-12-19T01:50:33.509Z,-4.62
2022-12-19T01:53:49.440Z,-4.70
2022-12-19T01:57:02.699Z,-4.70
2022-12-19T02:00:14.372Z,-4.70
2022-12-19T02:03:30.531Z,-4.72
2022-12-19T02:06:40.774Z,-4.80
2022-12-19T02:09:57.041Z,-4.80
2022-12-19T02:13:06.503Z,-4.80
2022-12-19T02:16:29.029Z,-4.90
2022-12-19T02:20:39.524Z,-4.90
2022-12-19T02:24:39.901Z,-4.90
2022-12-19T02:28:23.013Z,-4.94
2022-12-19T02:31:36.576Z,-5.00
2022-12-19T02:34:59.349Z,-5.00
2022-12-19T02:38:21.541Z,-5.00
2022-12-19T02:41:43.435Z,-5.00
2022-12-19T02:44:55.807Z,-5.00
2022-12-19T02:48:08.977Z,-5.00
2022-12-19T02:51:28.364Z,-5.00
2022-12-19T02:54:37.958Z,-4.92
2022-12-19T02:58:23.196Z,-4.92
2022-12-19T03:01:47.718Z,-4.90
2022-12-19T03:05:10.032Z,-4.92
2022-12-19T03:08:29.746Z,-4.90
2022-12-19T03:11:43.274Z,-4.92
2022-12-19T03:14:53.545Z,-4.94
2022-12-19T03:18:05.304Z,-4.90
2022-12-19T03:21:21.855Z,-4.90
2022-12-19T03:24:29.999Z,-4.80
2022-12-19T03:27:43.193Z,-4.80
2022-12-19T03:30:53.057Z,-4.70
2022-12-19T03:34:06.577Z,-4.60
2022-12-19T03:37:22.311Z,-4.50
2022-12-19T03:40:34.960Z,-4.48
2022-12-19T03:43:46.613Z,-4.40
2022-12-19T03:47:04.014Z,-4.30
2022-12-19T03:50:14.496Z,-4.20
2022-12-19T03:53:38.354Z,-4.20
2022-12-19T03:56:57.690Z,-4.14
2022-12-19T04:00:11.721Z,-4.10
2022-12-19T04:03:21.624Z,-4.10
2022-12-19T04:06:34.674Z,-4.10
2022-12-19T04:09:46.186Z,-4.00
2022-12-19T04:13:01.125Z,-4.00
2022-12-19T04:16:19.935Z,-4.00
2022-12-19T04:19:41.088Z,-3.90
2022-12-19T04:22:59.974Z,-3.88
2022-12-19T04:26:11.577Z,-3.84
2022-12-19T04:29:21.747Z,-3.80
2022-12-19T04:32:32.104Z,-3.80
2022-12-19T04:35:40.663Z,-3.80
2022-12-19T04:38:48.804Z,-3.80
2022-12-19T04:41:56.567Z,-3.80
2022-12-19T04:45:05.182Z,-3.80
2022-12-19T04:48:13.790Z,-3.80
2022-12-19T04:51:22.007Z,-3.80
2022-12-19T04:54:29.865Z,-3.76
2022-12-19T04:57:38.604Z,-3.70
2022-12-19T05:00:46.516Z,-3.70
2022-12-19T05:03:57.560Z,-3.70
2022-12-19T05:07:07.952Z,-3.70
2022-12-19T05:10:16.351Z,-3.60
2022-12-19T05:13:24.268Z,-3.60
2022-12-19T05:16:32.623Z,-3.60
2022-12-19T05:19:40.547Z,-3.60
2022-12-19T05:22:50.535Z,-3.50
2022-12-19T05:26:01.454Z,-3.50
2022-12-19T05:29:10.357Z,-3.50
2022-12-19T05:32:19.013Z,-3.50
2022-12-19T05:35:26.940Z,-3.50
2022-12-19T05:38:36.421Z,-3.50
2022-12-19T05:41:48.846Z,-3.48
2022-12-19T05:44:57.045Z,-3.40
2022-12-19T05:48:05.635Z,-3.40
2022-12-19T05:51:17.171Z,-3.30
2022-12-19T05:54:26.341Z,-3.30
2022-12-19T05:57:35.300Z,-3.30
2022-12-19T06:00:43.992Z,-3.30
2022-12-19T06:03:52.288Z,-3.30
2022-12-19T06:07:00.272Z,-3.20
2022-12-19T06:10:10.202Z,-3.20
2022-12-19T06:13:23.521Z,-3.20
2022-12-19T06:16:32.868Z,-3.20
2022-12-19T06:19:47.362Z,-3.10
2022-12-19T06:22:56.020Z,-3.10
2022-12-19T06:26:06.635Z,-3.10
2022-12-19T06:29:14.357Z,-3.10
2022-12-19T06:32:22.562Z,-3.10
2022-12-19T06:35:30.957Z,-3.08
2022-12-19T06:38:40.001Z,-3.00
2022-12-19T06:42:05.523Z,-3.00
2022-12-19T06:45:14.789Z,-2.94
2022-12-19T06:48:22.967Z,-2.90
2022-12-19T06:51:31.596Z,-2.90
2022-12-19T06:54:39.815Z,-2.90
2022-12-19T06:57:48.319Z,-2.82
2022-12-19T07:00:57.698Z,-2.80
2022-12-19T07:04:06.819Z,-2.80
2022-12-19T07:07:14.921Z,-2.72
2022-12-19T07:10:23.108Z,-2.70
2022-12-19T07:13:31.165Z,-2.70
2022-12-19T07:16:39.575Z,-2.68
2022-12-19T07:19:48.105Z,-2.62
2022-12-19T07:22:56.236Z,-2.60
2022-12-19T07:26:05.523Z,-2.60
2022-12-19T07:29:15.478Z,-2.60
2022-12-19T07:32:23.991Z,-2.54
2022-12-19T07:35:32.102Z,-2.50
2022-12-19T07:38:43.177Z,-2.50
2022-12-19T07:41:51.685Z,-2.50
2022-12-19T07:45:00.613Z,-2.50
2022-12-19T07:48:11.554Z,-2.50
2022-12-19T07:51:19.775Z,-2.40
2022-12-19T07:54:27.853Z,-2.40
2022-12-19T07:57:36.017Z,-2.30
2022-12-19T08:00:45.458Z,-2.30
2022-12-19T08:03:58.340Z,-2.20
2022-12-19T08:07:07.808Z,-2.20
2022-12-19T08:10:16.486Z,-2.16
2022-12-19T08:13:24.766Z,-2.10
2022-12-19T08:16:43.898Z,-2.10
2022-12-19T08:19:57.911Z,-2.02
2022-12-19T08:23:06.029Z,-2.00
2022-12-19T08:26:17.793Z,-2.00
2022-12-19T08:29:26.041Z,-1.98
2022-12-19T08:32:33.869Z,-1.92
2022-12-19T08:35:42.217Z,-1.90
2022-12-19T08:38:52.486Z,-1.90
2022-12-19T08:42:00.856Z,-1.80
2022-12-19T08:45:11.232Z,-1.80
2022-12-19T08:48:19.892Z,-1.80
2022-12-19T08:51:29.172Z,-1.90
2022-12-19T08:54:37.481Z,-1.90
2022-12-19T08:57:45.605Z,-1.98
2022-12-19T09:00:57.532Z,-2.00
2022-12-19T09:05:52.046Z,-2.00
2022-12-19T09:07:38.574Z,-2.00
2022-12-19T09:10:47.376Z,-2.00
2022-12-19T09:13:58.882Z,-2.00
2022-12-19T09:17:08.260Z,-1.84
2022-12-19T09:20:22.834Z,-1.70
2022-12-19T09:23:32.979Z,-1.60
2022-12-19T09:26:42.303Z,-1.50
2022-12-19T09:29:50.574Z,-1.40
2022-12-19T09:32:58.729Z,-1.40
2022-12-19T09:36:09.839Z,-1.30
2022-12-19T09:39:19.486Z,-1.20
2022-12-19T09:42:49.063Z,-1.00
2022-12-19T09:46:13.349Z,-0.90
2022-12-19T09:49:26.324Z,-0.80
2022-12-19T09:52:42.849Z,-0.78
2022-12-19T09:55:54.505Z,-0.70
2022-12-19T09:59:14.412Z,-0.70
2022-12-19T10:02:46.402Z,-0.64
2022-12-19T10:07:11.504Z,-0.60
2022-12-19T10:11:26.564Z,-0.58
2022-12-19T10:13:27.434Z,-0.60
2022-12-19T10:17:23.698Z,-0.52
2022-12-19T10:20:38.636Z,-0.56
2022-12-19T10:24:34.807Z,-0.50
2022-12-19T10:27:58.539Z,-0.44
2022-12-19T10:31:22.384Z,-0.40
2022-12-19T10:34:38.698Z,-0.40
2022-12-19T10:38:06.631Z,-0.40
2022-12-19T10:41:22.290Z,-0.40
2022-12-19T10:44:35.227Z,-0.38
2022-12-19T10:47:43.597Z,-0.30
2022-12-19T10:50:51.722Z,-0.40
2022-12-19T10:54:01.448Z,-0.30
2022-12-19T10:57:24.803Z,-0.20
2022-12-19T11:00:33.242Z,-0.10
2022-12-19T11:03:44.079Z,-0.10
2022-12-19T11:07:08.263Z,-0.22
2022-12-19T11:20:34.544Z,-0.34
2022-12-19T11:29:24.868Z,-0.48
2022-12-19T11:29:54.186Z,-0.60
2022-12-19T11:30:36.678Z,-0.70
2022-12-19T11:32:41.225Z,-0.62
2022-12-19T11:35:54.863Z,-0.64
2022-12-19T11:39:05.023Z,-0.70
2022-12-19T11:42:47.705Z,-0.70
2022-12-19T11:46:05.413Z,-0.70
2022-12-19T11:49:34.434Z,-0.68
2022-12-19T11:53:16.589Z,-0.54
2022-12-19T11:56:25.390Z,-0.40
2022-12-19T11:59:37.907Z,-0.30
2022-12-19T12:03:29.941Z,-0.20
2022-12-19T12:06:47.697Z,-0.10
2022-12-19T12:16:09.450Z,0.00
2022-12-19T12:21:06.620Z,0.20
2022-12-19T12:30:09.077Z,0.40
2022-12-19T12:31:05.337Z,0.20
2022-12-19T12:32:04.346Z,0.00
2022-12-19T12:35:16.297Z,-0.04
2022-12-19T12:35:30.765Z,0.30
2022-12-19T12:40:43.857Z,0.40
2022-12-19T12:44:10.738Z,0.22
2022-12-19T12:47:24.657Z,0.10
2022-12-19T12:50:35.918Z,0.00
2022-12-19T12:53:48.011Z,0.02
2022-12-19T12:56:57.568Z,0.48
2022-12-19T13:00:24.069Z,0.90
2022-12-19T13:03:33.304Z,1.20
2022-12-19T13:07:01.734Z,1.30
2022-12-19T13:10:26.100Z,1.30
2022-12-19T13:13:58.419Z,1.50
2022-12-19T13:17:08.281Z,1.40
2022-12-19T13:20:45.173Z,1.20
2022-12-19T13:24:16.040Z,1.10
2022-12-19T13:27:50.982Z,1.10
2022-12-19T13:31:23.436Z,0.80
2022-12-19T13:34:44.023Z,0.40
2022-12-19T13:39:57.352Z,0.20
2022-12-19T13:42:07.794Z,0.04
2022-12-19T13:45:25.326Z,-0.10
2022-12-19T13:48:41.790Z,-0.22
2022-12-19T13:51:57.820Z,-0.30
2022-12-19T13:55:16.277Z,-0.32
2022-12-19T13:58:30.984Z,-0.50
2022-12-19T14:01:41.845Z,-0.66
2022-12-19T14:04:50.410Z,-0.80
2022-12-19T14:07:59.339Z,-1.00
2022-12-19T14:11:42.038Z,-1.18
2022-12-19T14:15:14.080Z,-1.32
2022-12-19T14:18:42.199Z,-1.50
2022-12-19T14:22:04.927Z,-1.64
2022-12-19T14:28:14.998Z,-1.78
2022-12-19T14:28:56.679Z,-1.86
2022-12-19T14:33:39.595Z,-1.92
2022-12-19T14:36:10.401Z,-2.00
2022-12-19T14:39:25.330Z,-2.10
2022-12-19T14:43:58.048Z,-2.20
2022-12-19T14:54:04.973Z,-2.30
2022-12-19T14:54:05.397Z,-2.20
2022-12-19T14:54:24.404Z,-2.32
2022-12-19T14:57:04.260Z,-2.40
2022-12-19T15:04:51.788Z,-2.50
2022-12-19T15:07:31.114Z,-2.50
2022-12-19T15:11:06.608Z,-2.50
2022-12-19T15:14:56.919Z,-2.60
2022-12-19T15:17:50.965Z,-2.60
2022-12-19T15:21:01.729Z,-2.70
2022-12-19T15:24:11.627Z,-2.70
2022-12-19T15:27:22.042Z,-2.70
2022-12-19T15:30:42.009Z,-2.76
2022-12-19T15:34:33.726Z,-2.80
2022-12-19T15:37:21.684Z,-2.80
2022-12-19T15:40:29.894Z,-2.80
2022-12-19T15:44:03.010Z,-2.80
2022-12-19T15:47:18.599Z,-2.82
2022-12-19T15:50:30.010Z,-2.90
2022-12-19T15:53:41.169Z,-2.90
2022-12-19T15:56:54.945Z,-2.90
2022-12-19T16:00:14.177Z,-2.90
2022-12-19T16:03:25.090Z,-2.90
2022-12-19T16:06:36.915Z,-2.90
2022-12-19T16:09:45.151Z,-2.90
2022-12-19T16:12:58.319Z,-2.94
2022-12-19T16:16:14.949Z,-3.00
2022-12-19T16:19:32.724Z,-3.00
2022-12-19T16:22:41.847Z,-3.00
2022-12-19T16:25:52.580Z,-3.00
2022-12-19T16:29:02.586Z,-3.02
2022-12-19T16:32:14.049Z,-3.02
2022-12-19T16:35:55.031Z,-3.02
2022-12-19T16:38:53.464Z,-3.02
2022-12-19T16:42:01.475Z,-3.02
2022-12-19T16:45:20.099Z,-3.02
2022-12-19T16:48:31.062Z,-3.04
2022-12-19T16:51:39.936Z,-3.06
2022-12-19T16:54:51.292Z,-3.08
2022-12-19T16:58:02.319Z,-3.00
2022-12-19T17:01:14.800Z,-3.00
2022-12-19T17:04:26.454Z,-3.00
2022-12-19T17:07:36.703Z,-3.00
2022-12-19T17:10:47.692Z,-2.96
2022-12-19T17:14:02.717Z,-2.90
2022-12-19T17:17:15.625Z,-2.90
2022-12-19T17:20:26.935Z,-2.90
2022-12-19T17:23:35.237Z,-2.90
2022-12-19T17:26:43.241Z,-2.90
2022-12-19T17:29:51.315Z,-2.90
2022-12-19T17:33:00.349Z,-2.88
2022-12-19T17:36:16.185Z,-2.80
2022-12-19T17:39:29.318Z,-2.80
2022-12-19T17:42:38.203Z,-2.80
2022-12-19T17:45:46.209Z,-2.80
2022-12-19T17:48:55.977Z,-2.80
2022-12-19T17:52:02.781Z,-2.80
2022-12-19T17:55:26.940Z,-2.74
2022-12-19T17:58:35.218Z,-2.72
2022-12-19T18:01:46.745Z,-2.70
2022-12-19T18:04:55.876Z,-2.70
2022-12-19T18:08:05.631Z,-2.70
2022-12-19T18:11:20.676Z,-2.70
2022-12-19T18:14:31.447Z,-2.70
2022-12-19T18:17:48.980Z,-2.70
2022-12-19T18:20:59.272Z,-2.70
2022-12-19T18:24:12.279Z,-2.70
2022-12-19T18:27:20.688Z,-2.70
2022-12-19T18:30:29.491Z,-2.70
2022-12-19T18:33:43.450Z,-2.70
2022-12-19T18:36:53.882Z,-2.70
2022-12-19T18:40:02.222Z,-2.72
2022-12-19T18:43:13.450Z,-2.70
2022-12-19T18:46:27.080Z,-2.70
2022-12-19T18:49:40.389Z,-2.70
2022-12-19T18:52:51.102Z,-2.70
2022-12-19T18:55:59.326Z,-2.70
2022-12-19T18:59:14.239Z,-2.70
2022-12-19T19:02:30.330Z,-2.70
2022-12-19T19:05:42.396Z,-2.70
2022-12-19T19:08:52.398Z,-2.70
2022-12-19T19:12:00.773Z,-2.70
2022-12-19T19:15:11.110Z,-2.70
2022-12-19T19:18:22.405Z,-2.70
2022-12-19T19:21:36.009Z,-2.70
2022-12-19T19:24:48.055Z,-2.70
2022-12-19T19:28:00.299Z,-2.70
2022-12-19T19:31:12.575Z,-2.70
2022-12-19T19:34:29.441Z,-2.70
2022-12-19T19:37:38.581Z,-2.70
2022-12-19T19:40:46.665Z,-2.60
2022-12-19T19:43:54.793Z,-2.60
2022-12-19T19:47:03.333Z,-2.60
2022-12-19T19:50:15.416Z,-2.60
2022-12-19T19:53:23.195Z,-2.60
2022-12-19T19:56:32.635Z,-2.56
2022-12-19T19:59:41.097Z,-2.52
2022-12-19T20:02:49.151Z,-2.50
2022-12-19T20:06:04.071Z,-2.50
2022-12-19T20:09:11.958Z,-2.50
2022-12-19T20:12:20.375Z,-2.50
2022-12-19T20:15:28.532Z,-2.50
2022-12-19T20:18:40.037Z,-2.50
2022-12-19T20:21:48.581Z,-2.50
2022-12-19T20:24:56.620Z,-2.50
2022-12-19T20:28:04.593Z,-2.50
2022-12-19T20:31:14.284Z,-2.50
2022-12-19T20:34:21.139Z,-2.50
2022-12-19T20:37:29.137Z,-2.50
2022-12-19T20:40:37.084Z,-2.50
2022-12-19T20:43:45.260Z,-2.50
2022-12-19T20:46:53.275Z,-2.50
2022-12-19T20:50:01.181Z,-2.50
2022-12-19T20:53:09.622Z,-2.50
2022-12-19T20:56:20.558Z,-2.50
2022-12-19T20:59:28.377Z,-2.50
2022-12-19T21:02:52.993Z,-2.50
2022-12-19T21:06:05.501Z,-2.50
2022-12-19T21:09:13.512Z,-2.50
2022-12-19T21:12:21.556Z,-2.50
2022-12-19T21:15:29.414Z,-2.50
2022-12-19T21:18:38.632Z,-2.50
2022-12-19T21:21:46.551Z,-2.50
2022-12-19T21:24:54.377Z,-2.50
2022-12-19T21:28:02.738Z,-2.50
2022-12-19T21:31:18.431Z,-2.50
2022-12-19T21:34:26.836Z,-2.50
2022-12-19T21:37:41.622Z,-2.48
2022-12-19T21:40:51.715Z,-2.46
2022-12-19T21:44:01.206Z,-2.48
2022-12-19T21:47:10.201Z,-2.50
2022-12-19T21:50:19.154Z,-2.50
2022-12-19T21:53:27.147Z,-2.50
2022-12-19T21:56:37.060Z,-2.48
2022-12-19T21:59:45.510Z,-2.46
2022-12-19T22:03:15.674Z,-2.48
2022-12-19T22:06:28.255Z,-2.50
2022-12-19T22:09:36.591Z,-2.50
2022-12-19T22:12:44.290Z,-2.50
2022-12-19T22:15:52.269Z,-2.50
2022-12-19T22:19:01.615Z,-2.50
2022-12-19T22:22:10.673Z,-2.50
2022-12-19T22:25:18.989Z,-2.50
2022-12-19T22:28:29.873Z,-2.50
2022-12-19T22:31:39.620Z,-2.50
2022-12-19T22:34:47.976Z,-2.50
2022-12-19T22:37:58.325Z,-2.50
2022-12-19T22:41:09.264Z,-2.50
2022-12-19T22:44:23.136Z,-2.50
2022-12-19T22:47:31.611Z,-2.50
2022-12-19T22:50:45.287Z,-2.50
2022-12-19T22:53:53.978Z,-2.52
2022-12-19T22:57:01.780Z,-2.58
2022-12-19T23:00:15.563Z,-2.60
2022-12-19T23:03:23.660Z,-2.60
2022-12-19T23:06:35.676Z,-2.56
2022-12-19T23:09:43.843Z,-2.50
2022-12-19T23:12:51.827Z,-2.50
2022-12-19T23:16:00.736Z,-2.50
2022-12-19T23:19:10.626Z,-2.50
2022-12-19T23:22:16.794Z,-2.50
2022-12-19T23:25:26.211Z,-2.50
2022-12-19T23:28:34.582Z,-2.50
2022-12-19T23:31:45.194Z,-2.50
2022-12-19T23:34:53.106Z,-2.50
2022-12-19T23:38:00.830Z,-2.50
2022-12-19T23:41:13.484Z,-2.50
2022-12-19T23:44:21.743Z,-2.50
2022-12-19T23:47:29.567Z,-2.50
2022-12-19T23:50:37.580Z,-2.48
2022-12-19T23:53:46.040Z,-2.42
2022-12-19T23:56:54.278Z,-2.40
